Time;durP1;ratioP1;P1;durP2;ratioP2;P2;SDS_P1;SDS_P2;PMS_P1;PMS_P2;Temp;Humidity;BMP_temperature;BMP_pressure;BME280_temperature;BME280_humidity;BME280_pressure;Samples;Min_cycle;Max_cycle;Signal;HPM_P1;HPM_P2
2022/01/26 00:06:07;;;;;;;46.90;16.00;;;-0.30;99.90;;;;;;5004613;28;20045;-83
2022/01/26 00:08:33;;;;;;;49.75;16.40;;;2.20;99.90;;;;;;4997209;28;20118;-83
2022/01/26 00:10:59;;;;;;;42.17;15.77;;;2.40;99.90;;;;;;5001429;28;20161;-81
2022/01/26 00:13:25;;;;;;;47.65;18.30;;;2.70;99.90;;;;;;4998897;28;20038;-83
2022/01/26 00:15:51;;;;;;;46.78;16.95;;;0.60;99.90;;;;;;4998513;28;20102;-83
2022/01/26 00:18:20;;;;;;;44.47;17.58;;;2.60;99.90;;;;;;4995682;28;20091;-84
2022/01/26 00:20:55;;;;;;;46.50;17.48;;;0.90;99.90;;;;;;4994995;28;20026;-81
2022/01/26 00:24:12;;;;;;;48.20;17.88;;;0.40;99.90;;;;;;4998999;28;20026;-82
2022/01/26 00:26:15;;;;;;;51.65;17.27;;;0.50;99.90;;;;;;4996835;28;20213;-82
2022/01/26 00:29:07;;;;;;;48.17;18.02;;;0.60;99.90;;;;;;4997363;28;20053;-81
2022/01/26 00:39:45;;;;;;;57.40;18.80;;;2.20;99.90;;;;;;5004875;28;20037;-88
2022/01/26 00:42:11;;;;;;;52.47;18.30;;;0.40;99.90;;;;;;5014097;28;20118;-85
2022/01/26 00:44:42;;;;;;;55.40;18.25;;;-0.60;99.90;;;;;;5019633;28;20022;-90
2022/01/26 00:47:08;;;;;;;60.30;20.02;;;2.50;99.90;;;;;;5015969;28;20006;-90
2022/01/26 00:49:34;;;;;;;49.55;18.67;;;0.70;99.90;;;;;;5007775;28;20039;-88
2022/01/26 00:51:59;;;;;;;56.90;20.75;;;0.70;99.90;;;;;;5011924;28;20049;-84
2022/01/26 00:54:27;;;;;;;51.45;19.20;;;2.50;99.90;;;;;;4997973;28;20019;-82
2022/01/26 00:56:53;;;;;;;56.15;19.77;;;1.70;99.90;;;;;;4998769;28;20034;-83
2022/01/26 00:59:19;;;;;;;59.95;18.48;;;0.60;99.90;;;;;;4999282;28;20037;-84
2022/01/26 01:01:45;;;;;;;57.88;19.23;;;1.90;99.90;;;;;;4997838;28;20029;-84
2022/01/26 01:04:14;;;;;;;60.85;19.50;;;2.70;99.90;;;;;;4994276;28;20038;-82
2022/01/26 01:06:52;;;;;;;58.60;19.33;;;0.80;99.90;;;;;;5005437;28;20030;-82
2022/01/26 01:09:20;;;;;;;55.55;18.75;;;0.80;99.90;;;;;;4999648;28;20018;-83
2022/01/26 01:11:46;;;;;;;52.65;18.67;;;2.00;99.90;;;;;;5005482;28;20035;-84
2022/01/26 01:14:11;;;;;;;50.95;18.05;;;2.30;99.90;;;;;;5004067;28;20065;-84
2022/01/26 01:16:37;;;;;;;56.22;18.63;;;2.20;99.90;;;;;;5002197;28;20504;-85
2022/01/26 01:30:25;;;;;;;48.10;17.73;;;0.80;99.90;;;;;;4998915;28;20108;-83
2022/01/26 01:33:05;;;;;;;54.85;18.30;;;2.10;99.90;;;;;;5001187;28;20030;-83
2022/01/26 01:35:35;;;;;;;42.67;15.50;;;2.30;99.90;;;;;;4998892;28;20034;-82
2022/01/26 01:38:08;;;;;;;37.95;15.15;;;0.50;99.90;;;;;;5001349;28;20031;-84
2022/01/26 01:40:35;;;;;;;46.65;15.93;;;1.80;99.90;;;;;;5004634;28;20090;-83
2022/01/26 01:43:02;;;;;;;37.58;14.18;;;2.00;99.90;;;;;;5011296;28;20042;-82
2022/01/26 01:45:35;;;;;;;36.70;14.27;;;0.90;99.90;;;;;;5000107;28;20060;-81
2022/01/26 01:48:02;;;;;;;33.53;13.32;;;2.00;99.90;;;;;;5030636;28;20034;-82
2022/01/26 01:50:28;;;;;;;36.83;13.82;;;0.70;99.90;;;;;;4993686;28;20026;-83
2022/01/26 01:53:02;;;;;;;40.25;14.63;;;2.80;99.90;;;;;;4997612;28;20040;-81
2022/01/26 01:55:29;;;;;;;34.00;13.70;;;3.00;99.90;;;;;;4995476;28;20026;-83
2022/01/26 01:58:00;;;;;;;37.45;13.60;;;0.60;99.90;;;;;;4997017;28;20113;-83
2022/01/26 02:00:27;;;;;;;35.08;13.43;;;0.80;99.90;;;;;;4998641;28;20032;-83
2022/01/26 02:02:53;;;;;;;40.72;14.32;;;0.70;99.90;;;;;;5004045;28;20117;-82
2022/01/26 02:05:19;;;;;;;38.70;13.93;;;0.80;99.90;;;;;;5000140;28;20054;-81
2022/01/26 02:07:45;;;;;;;40.75;14.60;;;0.80;99.90;;;;;;4999693;28;20041;-83
2022/01/26 02:10:11;;;;;;;37.85;14.63;;;2.40;99.90;;;;;;4999343;28;20584;-83
2022/01/26 02:12:43;;;;;;;34.65;13.35;;;0.20;99.90;;;;;;5000129;28;20038;-84
2022/01/26 02:15:18;;;;;;;39.95;14.48;;;0.80;99.90;;;;;;4996237;28;20030;-82
2022/01/26 02:55:45;;;;;;;38.38;14.43;;;0.20;99.90;;;;;;4998276;28;20072;-83
2022/01/26 02:59:08;;;;;;;39.63;14.40;;;1.90;99.90;;;;;;5002594;28;20034;-83
2022/01/26 03:01:11;;;;;;;36.08;13.07;;;2.80;99.90;;;;;;4981170;28;20121;-82
2022/01/26 03:03:51;;;;;;;34.22;14.20;;;2.40;99.90;;;;;;4996932;28;20034;-83
2022/01/26 03:06:23;;;;;;;36.65;14.20;;;1.70;99.90;;;;;;4995521;28;20053;-83
2022/01/26 03:08:55;;;;;;;33.15;13.43;;;3.30;99.90;;;;;;4997804;28;20046;-84
2022/01/26 03:11:26;;;;;;;33.97;13.68;;;0.80;99.90;;;;;;4997908;28;21858;-85
2022/01/26 03:13:58;;;;;;;31.42;13.10;;;2.00;99.90;;;;;;4997084;28;20031;-83
2022/01/26 03:16:37;;;;;;;34.13;13.85;;;2.30;99.90;;;;;;4995217;28;20027;-83
2022/01/26 03:19:30;;;;;;;34.15;13.82;;;1.40;99.90;;;;;;4996140;28;20199;-87
2022/01/26 03:29:59;;;;;;;35.30;13.50;;;2.30;99.90;;;;;;4998779;28;20026;-83
2022/01/26 03:34:54;;;;;;;35.05;13.95;;;2.30;99.90;;;;;;5002939;28;20472;-83
2022/01/26 03:37:24;;;;;;;34.50;13.55;;;0.60;99.90;;;;;;5000798;28;20027;-83
2022/01/26 03:39:51;;;;;;;37.13;14.23;;;2.00;99.90;;;;;;4998563;28;20030;-82
2022/01/26 03:42:17;;;;;;;39.30;14.45;;;1.30;99.90;;;;;;4985513;28;20050;-82
2022/01/26 03:44:43;;;;;;;34.45;13.32;;;1.80;99.90;;;;;;4996254;28;20034;-82
2022/01/26 03:47:11;;;;;;;34.20;13.00;;;0.50;99.90;;;;;;5001193;28;20034;-83
2022/01/26 03:49:37;;;;;;;30.08;11.73;;;1.30;99.90;;;;;;4994790;28;20034;-83
2022/01/26 03:52:04;;;;;;;32.22;13.25;;;0.50;99.90;;;;;;4997145;28;20034;-83
2022/01/26 03:54:31;;;;;;;31.35;13.65;;;0.50;99.90;;;;;;4996937;28;20464;-82
2022/01/26 03:56:56;;;;;;;29.65;11.35;;;2.00;99.90;;;;;;4999644;28;20026;-84
2022/01/26 03:59:22;;;;;;;35.13;13.43;;;0.50;99.90;;;;;;4998830;28;20554;-86
2022/01/26 04:01:48;;;;;;;36.05;14.10;;;2.00;99.90;;;;;;4995369;28;20114;-83
2022/01/26 04:04:14;;;;;;;35.65;13.30;;;2.00;99.90;;;;;;5000470;28;20033;-83
2022/01/26 04:06:40;;;;;;;33.08;13.15;;;1.00;99.90;;;;;;4997422;28;20030;-83
2022/01/26 04:09:08;;;;;;;33.03;12.77;;;2.00;99.90;;;;;;4999354;28;20090;-84
2022/01/26 04:11:38;;;;;;;33.30;11.40;;;1.00;99.90;;;;;;5011762;28;20018;-83
2022/01/26 04:14:10;;;;;;;29.15;11.82;;;1.90;99.90;;;;;;5001377;28;20101;-84
2022/01/26 04:16:37;;;;;;;32.42;11.52;;;-0.60;99.90;;;;;;4997761;28;20027;-82
2022/01/26 04:19:03;;;;;;;31.17;11.35;;;1.40;99.90;;;;;;4998590;28;20022;-83
2022/01/26 04:21:55;;;;;;;33.70;12.43;;;0.80;99.90;;;;;;4997932;28;20022;-83
2022/01/26 04:24:41;;;;;;;30.95;11.65;;;2.10;99.90;;;;;;5016479;28;20022;-89
2022/01/26 04:27:32;;;;;;;29.83;11.48;;;0.70;99.90;;;;;;5014948;28;20030;-86
2022/01/26 04:29:58;;;;;;;;;;;0.40;99.90;;;;;;5011129;28;20019;-88
2022/01/26 04:32:30;;;;;;;34.05;12.43;;;2.40;99.90;;;;;;5010810;28;19956;-85
2022/01/26 04:34:56;;;;;;;28.20;11.25;;;0.60;99.90;;;;;;5010841;28;20050;-85
2022/01/26 04:37:33;;;;;;;32.38;11.38;;;1.00;99.90;;;;;;4992048;28;20041;-85
2022/01/26 04:40:08;;;;;;;35.55;12.13;;;2.20;99.90;;;;;;4991134;28;20026;-83
2022/01/26 04:45:02;;;;;;;34.05;11.60;;;0.60;99.90;;;;;;4998749;28;20033;-83
2022/01/26 04:47:28;;;;;;;33.15;11.57;;;0.20;99.90;;;;;;4996032;28;20048;-87
2022/01/26 04:49:54;;;;;;;34.30;12.15;;;0.10;99.90;;;;;;4995346;28;20027;-85
2022/01/26 04:52:20;;;;;;;39.55;13.20;;;2.70;99.90;;;;;;4998834;28;20030;-82
2022/01/26 04:54:46;;;;;;;37.75;12.68;;;2.30;99.90;;;;;;5000096;28;20080;-84
2022/01/26 04:57:11;;;;;;;36.03;12.80;;;0.70;99.90;;;;;;5000872;28;20026;-82
2022/01/26 04:59:37;;;;;;;37.88;14.45;;;2.20;99.90;;;;;;5003062;28;20029;-83
2022/01/26 05:02:03;;;;;;;36.53;13.85;;;2.10;99.90;;;;;;5012453;28;20041;-82
2022/01/26 05:04:29;;;;;;;30.67;12.27;;;1.90;99.90;;;;;;4999925;28;20030;-82
2022/01/26 05:06:54;;;;;;;37.10;12.75;;;0.90;99.90;;;;;;5002123;28;20575;-83
2022/01/26 05:09:21;;;;;;;39.38;12.50;;;2.00;99.90;;;;;;5000971;28;20034;-85
2022/01/26 05:11:49;;;;;;;38.75;12.98;;;0.50;99.90;;;;;;4998309;28;20317;-83
2022/01/26 05:14:15;;;;;;;32.70;12.15;;;0.50;99.90;;;;;;5000806;28;20027;-84
2022/01/26 05:16:41;;;;;;;41.78;13.40;;;1.50;99.90;;;;;;4998129;28;20101;-82
2022/01/26 05:19:07;;;;;;;34.65;12.27;;;0.40;99.90;;;;;;4995891;28;20427;-82
2022/01/26 05:21:33;;;;;;;38.15;13.38;;;1.80;99.90;;;;;;4996295;28;20053;-83
2022/01/26 05:23:59;;;;;;;41.00;12.15;;;2.40;99.90;;;;;;4996865;28;20042;-84
2022/01/26 05:26:25;;;;;;;36.70;11.95;;;2.60;99.90;;;;;;4999430;28;20673;-80
2022/01/26 05:28:54;;;;;;;39.53;12.57;;;0.80;99.90;;;;;;4999973;28;20026;-83
2022/01/26 05:31:20;;;;;;;40.30;13.00;;;2.80;99.90;;;;;;5001688;28;20034;-83
2022/01/26 05:33:46;;;;;;;36.65;12.40;;;2.80;99.90;;;;;;4999266;28;20030;-83
2022/01/26 05:36:12;;;;;;;43.70;14.23;;;0.20;99.90;;;;;;4999615;28;20077;-86
2022/01/26 05:38:38;;;;;;;42.22;13.20;;;2.80;99.90;;;;;;4997863;28;20101;-83
2022/01/26 05:41:04;;;;;;;41.72;12.55;;;2.10;99.90;;;;;;4994648;28;20018;-81
2022/01/26 05:43:31;;;;;;;38.45;12.02;;;0.60;99.90;;;;;;4996239;28;20069;-82
2022/01/26 05:46:02;;;;;;;37.78;12.23;;;0.20;99.90;;;;;;4997760;28;20178;-83
2022/01/26 05:48:28;;;;;;;41.42;12.68;;;0.50;99.90;;;;;;4999275;28;20566;-83
2022/01/26 05:51:04;;;;;;;41.92;12.40;;;2.60;99.90;;;;;;5012385;28;20054;-82
2022/01/26 05:53:32;;;;;;;43.25;13.00;;;-0.90;99.90;;;;;;4999824;28;20030;-84
2022/01/26 05:55:58;;;;;;;42.22;12.02;;;2.20;99.90;;;;;;4999658;28;20042;-82
2022/01/26 05:58:24;;;;;;;50.08;14.18;;;0.80;99.90;;;;;;5001241;28;20026;-83
2022/01/26 06:00:50;;;;;;;42.00;12.27;;;1.90;99.90;;;;;;4998481;28;20026;-82
2022/01/26 06:03:16;;;;;;;42.78;14.63;;;0.50;99.90;;;;;;5000051;28;20023;-84
2022/01/26 06:05:41;;;;;;;45.25;14.32;;;1.60;99.90;;;;;;5031948;28;20027;-83
2022/01/26 06:08:07;;;;;;;46.47;13.43;;;1.30;99.90;;;;;;4997809;28;20160;-83
2022/01/26 06:10:33;;;;;;;36.67;12.30;;;2.20;99.90;;;;;;4995474;28;20118;-82
2022/01/26 06:12:59;;;;;;;38.75;13.13;;;2.80;99.90;;;;;;4992781;28;20053;-83
2022/01/26 06:15:25;;;;;;;36.97;12.05;;;0.80;99.90;;;;;;4997881;28;20050;-83
2022/01/26 06:17:51;;;;;;;37.95;11.10;;;1.10;99.90;;;;;;5001350;28;20512;-84
2022/01/26 06:20:17;;;;;;;37.63;11.55;;;0.90;99.90;;;;;;4998426;28;20030;-82
2022/01/26 06:22:42;;;;;;;33.78;11.68;;;1.00;99.90;;;;;;4994389;28;20040;-82
2022/01/26 06:25:09;;;;;;;44.08;12.70;;;-0.10;99.90;;;;;;4997135;28;20069;-83
2022/01/26 06:27:39;;;;;;;41.50;12.35;;;1.50;99.90;;;;;;5014316;28;20037;-83
2022/01/26 06:30:06;;;;;;;30.42;11.07;;;2.80;99.90;;;;;;4999872;28;20030;-83
2022/01/26 06:32:33;;;;;;;37.00;12.20;;;-0.40;99.90;;;;;;4997713;28;20026;-82
2022/01/26 06:34:59;;;;;;;44.35;12.23;;;2.40;99.90;;;;;;4996906;28;20129;-83
2022/01/26 06:37:30;;;;;;;37.75;11.40;;;0.90;99.90;;;;;;4999477;28;20120;-82
2022/01/26 06:39:56;;;;;;;37.45;12.80;;;0.90;99.90;;;;;;4996516;28;20365;-82
2022/01/26 06:42:29;;;;;;;35.30;11.90;;;1.00;99.90;;;;;;4997360;28;20046;-82
2022/01/26 06:49:56;;;;;;;43.17;13.32;;;2.70;99.90;;;;;;5000032;28;20097;-81
2022/01/26 06:52:22;;;;;;;37.53;11.88;;;2.70;99.90;;;;;;5002596;28;20382;-85
2022/01/26 06:55:04;;;;;;;41.65;12.73;;;1.10;99.90;;;;;;4991421;28;20053;-82
2022/01/26 06:57:30;;;;;;;34.80;12.05;;;2.00;99.90;;;;;;5017069;28;20030;-82
2022/01/26 06:59:56;;;;;;;37.17;11.98;;;0.40;99.90;;;;;;5005196;28;20054;-82
2022/01/26 07:02:32;;;;;;;35.30;12.05;;;1.20;99.90;;;;;;5000762;28;20038;-83
2022/01/26 07:04:58;;;;;;;42.05;12.93;;;-0.10;99.90;;;;;;5002533;28;20484;-81
2022/01/26 07:07:24;;;;;;;39.70;12.52;;;1.20;99.90;;;;;;5002232;28;20037;-85
2022/01/26 07:09:49;;;;;;;39.78;12.82;;;2.60;99.90;;;;;;4998479;28;20038;-83
2022/01/26 07:12:18;;;;;;;38.78;13.80;;;1.10;99.90;;;;;;5005214;28;20027;-82
2022/01/26 07:22:43;;;;;;;35.95;11.18;;;1.30;99.90;;;;;;5002446;28;20052;-84
2022/01/26 07:25:09;;;;;;;34.00;11.90;;;1.70;99.90;;;;;;5004437;28;20073;-83
2022/01/26 07:27:35;;;;;;;35.15;12.85;;;;;;;;;;5002800;28;20034;-82
2022/01/26 07:30:01;;;;;;;37.25;12.57;;;1.40;99.90;;;;;;5002089;28;20030;-84
2022/01/26 07:32:29;;;;;;;38.63;13.02;;;2.80;99.90;;;;;;5006360;28;20065;-84
2022/01/26 07:34:55;;;;;;;37.30;12.52;;;1.50;99.90;;;;;;5018381;28;20030;-83
2022/01/26 07:37:21;;;;;;;35.28;13.32;;;1.30;99.90;;;;;;5006564;28;20030;-83
2022/01/26 07:40:03;;;;;;;29.92;11.93;;;3.20;99.90;;;;;;5005206;28;20026;-82
2022/01/26 07:42:29;;;;;;;32.78;12.27;;;1.00;99.90;;;;;;4997674;28;20050;-81
2022/01/26 07:44:55;;;;;;;29.60;11.48;;;2.20;99.90;;;;;;5000622;28;20041;-82
2022/01/26 07:47:23;;;;;;;28.45;11.57;;;2.50;99.90;;;;;;5001914;28;20034;-81
2022/01/26 07:49:52;;;;;;;30.58;12.30;;;1.00;99.90;;;;;;5000481;28;20027;-82
2022/01/26 07:52:22;;;;;;;29.65;11.75;;;1.50;99.90;;;;;;5000906;28;20026;-84
2022/01/26 07:54:51;;;;;;;26.90;10.63;;;1.50;99.90;;;;;;5004246;28;20033;-82
2022/01/26 07:57:18;;;;;;;29.17;12.07;;;1.50;99.90;;;;;;5002783;28;20046;-83
2022/01/26 07:59:44;;;;;;;28.85;11.65;;;1.40;99.90;;;;;;5029177;28;20251;-84
2022/01/26 08:02:10;;;;;;;26.75;12.18;;;2.60;99.90;;;;;;5001524;28;20018;-84
2022/01/26 08:04:36;;;;;;;25.77;11.00;;;0.30;99.90;;;;;;5017899;28;20029;-89
2022/01/26 08:07:02;;;;;;;29.35;12.25;;;2.50;99.90;;;;;;5016138;28;20890;-93
2022/01/26 08:09:28;;;;;;;26.25;11.30;;;1.60;99.90;;;;;;5031570;23;20086;-80
2022/01/26 08:11:54;;;;;;;26.20;11.77;;;1.60;99.90;;;;;;5009586;28;20081;-82
2022/01/26 08:14:20;;;;;;;29.05;12.88;;;1.60;99.90;;;;;;5007162;28;20057;-81
2022/01/26 08:16:46;;;;;;;27.15;11.52;;;1.70;99.90;;;;;;5004371;28;20505;-82
2022/01/26 08:19:17;;;;;;;27.20;11.70;;;1.70;99.90;;;;;;5008419;28;20030;-80
2022/01/26 08:21:43;;;;;;;27.73;11.52;;;1.70;99.90;;;;;;5031682;28;20006;-78
2022/01/26 08:24:14;;;;;;;36.33;11.65;;;1.70;99.90;;;;;;5009019;28;20061;-81
2022/01/26 08:26:45;;;;;;;28.13;11.43;;;1.80;99.90;;;;;;4999317;28;20037;-81
2022/01/26 08:29:29;;;;;;;28.30;11.95;;;1.90;99.90;;;;;;5006560;28;20053;-83
2022/01/26 08:31:55;;;;;;;20.85;10.27;;;1.80;99.90;;;;;;5003895;28;20041;-83
2022/01/26 08:34:21;;;;;;;21.85;9.73;;;1.80;99.90;;;;;;5001946;28;20042;-81
2022/01/26 08:36:48;;;;;;;22.50;10.15;;;1.80;99.90;;;;;;5013521;28;20010;-78
2022/01/26 08:39:14;;;;;;;27.80;11.07;;;1.70;99.90;;;;;;5018094;28;20046;-78
2022/01/26 08:41:42;;;;;;;24.58;11.02;;;1.60;99.90;;;;;;5023725;28;20033;-79
2022/01/26 08:44:10;;;;;;;24.98;10.60;;;1.60;99.90;;;;;;5042634;28;20030;-78
2022/01/26 08:46:37;;;;;;;22.30;10.38;;;1.60;99.90;;;;;;5025360;28;20030;-80
2022/01/26 08:49:04;;;;;;;28.13;13.10;;;1.60;99.90;;;;;;5022941;28;20014;-79
2022/01/26 08:51:31;;;;;;;24.17;10.95;;;1.60;99.90;;;;;;5020050;28;20038;-79
2022/01/26 08:53:58;;;;;;;22.95;10.65;;;1.60;99.90;;;;;;5014040;28;20045;-77
2022/01/26 08:56:26;;;;;;;27.92;12.43;;;1.70;99.90;;;;;;5028927;28;20451;-77
2022/01/26 08:58:52;;;;;;;23.30;10.27;;;1.70;99.90;;;;;;5028662;28;20038;-79
2022/01/26 09:01:19;;;;;;;21.80;9.70;;;1.80;99.90;;;;;;5020339;28;20040;-81
2022/01/26 09:03:45;;;;;;;25.10;11.32;;;1.80;99.90;;;;;;5014601;28;20034;-78
2022/01/26 09:06:12;;;;;;;24.95;10.40;;;1.70;99.90;;;;;;5000094;28;20041;-81
2022/01/26 09:08:40;;;;;;;20.83;10.02;;;1.60;99.90;;;;;;5011038;28;20029;-79
2022/01/26 09:11:07;;;;;;;18.58;8.88;;;1.60;99.90;;;;;;5029320;28;20034;-80
2022/01/26 09:13:34;;;;;;;18.05;9.02;;;1.70;99.90;;;;;;5021846;28;20172;-83
2022/01/26 09:16:02;;;;;;;24.65;10.00;;;1.60;99.90;;;;;;5008202;28;20037;-80
2022/01/26 09:21:01;;;;;;;21.00;9.65;;;1.60;99.90;;;;;;5022195;28;20084;-80
2022/01/26 09:23:30;;;;;;;25.95;9.90;;;1.50;99.90;;;;;;5020911;28;20649;-78
2022/01/26 09:25:57;;;;;;;22.77;9.45;;;1.50;99.90;;;;;;5022811;28;20041;-80
2022/01/26 09:28:29;;;;;;;21.98;9.45;;;1.60;99.90;;;;;;5019974;28;20022;-83
2022/01/26 09:30:55;;;;;;;21.05;9.70;;;1.50;99.90;;;;;;5014961;28;20040;-81
2022/01/26 09:33:21;;;;;;;20.92;9.07;;;1.50;99.90;;;;;;5005330;28;20049;-82
2022/01/26 09:35:48;;;;;;;21.30;9.77;;;1.60;99.90;;;;;;5007425;28;20234;-82
2022/01/26 09:38:14;;;;;;;18.80;9.32;;;1.60;99.90;;;;;;5009317;28;20065;-81
2022/01/26 09:40:41;;;;;;;24.02;9.75;;;1.60;99.90;;;;;;5003753;28;20023;-80
2022/01/26 09:43:07;;;;;;;17.70;8.43;;;1.60;99.90;;;;;;5003678;28;20123;-83
2022/01/26 09:45:35;;;;;;;18.83;9.52;;;1.70;99.90;;;;;;5010024;28;20038;-83
2022/01/26 09:48:04;;;;;;;18.00;9.07;;;1.70;99.90;;;;;;5010848;28;20122;-79
2022/01/26 09:50:33;;;;;;;21.83;9.18;;;1.70;99.90;;;;;;5011420;28;20033;-82
2022/01/26 09:52:59;;;;;;;18.55;8.85;;;1.70;99.90;;;;;;5006726;28;20113;-82
2022/01/26 09:55:26;;;;;;;33.45;16.13;;;1.70;99.90;;;;;;5008682;28;20030;-83
2022/01/26 09:57:58;;;;;;;22.92;9.38;;;1.70;99.90;;;;;;5008855;28;20040;-81
2022/01/26 10:00:28;;;;;;;19.35;9.10;;;1.90;99.90;;;;;;5007683;28;20499;-78
2022/01/26 10:03:00;;;;;;;22.85;9.90;;;1.80;99.90;;;;;;5002746;28;20045;-80
2022/01/26 10:05:41;;;;;;;17.92;8.20;;;1.90;99.90;;;;;;5009391;28;20022;-80
2022/01/26 10:08:14;;;;;;;17.90;8.85;;;1.90;99.90;;;;;;5005934;28;20486;-82
2022/01/26 10:18:33;;;;;;;22.52;9.95;;;1.80;99.90;;;;;;5006802;28;20486;-81
2022/01/26 10:21:04;;;;;;;21.40;9.68;;;1.80;99.90;;;;;;5012861;28;20053;-82
2022/01/26 10:23:36;;;;;;;23.30;10.23;;;1.80;99.90;;;;;;5005216;28;20088;-81
2022/01/26 10:26:06;;;;;;;24.38;10.13;;;1.70;99.90;;;;;;5020881;28;20033;-82
2022/01/26 10:28:47;;;;;;;26.02;10.07;;;1.80;99.90;;;;;;5006359;28;20073;-82
2022/01/26 10:31:32;;;;;;;22.00;9.07;;;1.90;99.90;;;;;;5002155;28;20044;-81
2022/01/26 10:34:09;;;;;;;21.05;10.00;;;2.00;99.90;;;;;;5003803;28;20276;-82
2022/01/26 10:36:35;;;;;;;24.58;10.43;;;1.90;99.90;;;;;;5007555;28;20061;-79
2022/01/26 10:39:07;;;;;;;22.23;9.93;;;1.90;99.90;;;;;;5011833;28;20939;-83
2022/01/26 10:41:35;;;;;;;25.23;10.40;;;2.00;99.90;;;;;;5000318;28;20105;-82
2022/01/26 10:44:03;;;;;;;23.83;10.00;;;2.00;99.90;;;;;;4994116;28;20033;-82
2022/01/26 10:46:39;;;;;;;25.15;9.73;;;2.00;99.90;;;;;;5003376;28;20034;-82
2022/01/26 10:57:03;;;;;;;24.75;9.77;;;2.00;99.90;;;;;;5005112;28;20029;-82
2022/01/26 10:59:29;;;;;;;25.33;11.43;;;2.00;99.90;;;;;;5004768;28;20033;-82
2022/01/26 11:01:59;;;;;;;22.33;10.50;;;2.10;99.90;;;;;;5005486;28;20029;-82
2022/01/26 11:04:27;;;;;;;25.95;11.32;;;2.00;99.90;;;;;;5002929;28;20034;-79
2022/01/26 11:06:54;;;;;;;25.40;10.25;;;1.80;99.90;;;;;;5000206;28;20077;-80
2022/01/26 11:09:25;;;;;;;28.27;11.93;;;1.70;99.90;;;;;;5003497;28;20049;-83
2022/01/26 11:12:02;;;;;;;28.17;11.77;;;1.70;99.90;;;;;;5010071;28;20056;-79
2022/01/26 11:14:42;;;;;;;25.55;10.75;;;1.90;99.90;;;;;;5008319;28;20053;-81
2022/01/26 11:17:09;;;;;;;27.97;11.40;;;2.30;99.90;;;;;;5003472;28;20033;-83
2022/01/26 11:19:46;;;;;;;28.35;11.63;;;1.80;99.90;;;;;;5007967;28;20084;-82
2022/01/26 11:22:14;;;;;;;25.08;10.77;;;1.90;99.90;;;;;;5004556;28;20030;-83
2022/01/26 11:24:48;;;;;;;25.75;11.60;;;1.90;99.90;;;;;;5002706;28;20031;-82
2022/01/26 11:27:16;;;;;;;28.02;12.20;;;1.80;99.90;;;;;;5003634;28;20057;-81
2022/01/26 11:29:46;;;;;;;26.35;11.85;;;1.80;99.90;;;;;;5000259;28;20415;-82
2022/01/26 11:32:19;;;;;;;25.73;11.02;;;1.90;99.90;;;;;;5002516;28;20026;-82
2022/01/26 11:34:49;;;;;;;25.38;10.85;;;2.00;99.90;;;;;;4995408;28;20030;-81
2022/01/26 11:37:18;;;;;;;25.02;9.82;;;3.00;99.90;;;;;;5002946;28;20025;-83
2022/01/26 11:45:35;;;;;;;24.17;9.77;;;2.10;99.90;;;;;;5000471;28;20065;-81
2022/01/26 11:48:08;;;;;;;23.48;9.85;;;2.10;99.90;;;;;;5013237;28;20090;-82
2022/01/26 11:50:36;;;;;;;22.80;9.38;;;2.10;99.90;;;;;;5008509;28;20057;-83
2022/01/26 11:53:04;;;;;;;23.88;10.57;;;2.00;99.90;;;;;;5009222;28;20039;-82
2022/01/26 11:55:40;;;;;;;21.65;9.50;;;2.00;99.90;;;;;;5002043;28;20037;-82
2022/01/26 11:58:10;;;;;;;24.00;9.73;;;2.10;99.90;;;;;;4993857;28;20026;-81
2022/01/26 12:04:01;;;;;;;19.85;9.38;;;2.10;99.90;;;;;;5007841;28;20116;-81
2022/01/26 12:06:37;;;;;;;18.20;8.57;;;2.20;99.90;;;;;;5010176;28;20498;-83
2022/01/26 12:09:08;;;;;;;18.00;8.25;;;2.20;99.90;;;;;;5007054;28;20071;-81
2022/01/26 12:11:35;;;;;;;20.80;9.50;;;2.20;99.90;;;;;;5012932;28;20060;-82
2022/01/26 12:14:04;;;;;;;23.45;9.52;;;2.20;99.90;;;;;;4997600;28;20032;-83
2022/01/26 12:16:40;;;;;;;26.40;10.10;;;2.10;99.90;;;;;;5005786;28;20037;-82
2022/01/26 12:38:42;;;;;;;25.08;10.85;;;2.20;99.90;;;;;;5007887;28;20025;-84
2022/01/26 12:43:43;;;;;;;23.73;11.07;;;2.20;99.90;;;;;;5005529;28;20061;-82
2022/01/26 12:46:21;;;;;;;23.88;10.80;;;2.20;99.90;;;;;;5002841;28;20156;-82
2022/01/26 12:48:49;;;;;;;22.15;11.00;;;2.80;99.90;;;;;;5001621;28;20022;-83
2022/01/26 12:51:15;;;;;;;23.83;10.85;;;2.10;99.90;;;;;;5003161;28;20098;-81
2022/01/26 12:53:41;;;;;;;25.83;11.52;;;2.10;99.90;;;;;;5003386;28;20053;-83
2022/01/26 12:56:11;;;;;;;20.70;9.82;;;2.10;99.90;;;;;;5004437;28;20037;-83
2022/01/26 12:58:40;;;;;;;28.75;11.07;;;2.00;99.90;;;;;;5004045;28;20041;-81
2022/01/26 13:01:08;;;;;;;23.58;10.32;;;2.00;99.90;;;;;;5007695;28;20037;-81
2022/01/26 13:03:37;;;;;;;20.48;9.60;;;3.20;99.90;;;;;;5005595;28;20512;-83
2022/01/26 13:06:22;;;;;;;23.48;10.80;;;3.30;99.90;;;;;;5025469;28;20026;-82
2022/01/26 13:08:57;;;;;;;22.35;10.40;;;1.90;99.90;;;;;;5013414;28;20053;-84
2022/01/26 13:11:30;;;;;;;21.23;10.52;;;1.90;99.90;;;;;;5013140;28;20499;-85
2022/01/26 13:16:44;;;;;;;24.15;10.38;;;1.90;99.90;;;;;;5013640;28;20039;-83
2022/01/26 13:19:33;;;;;;;27.00;10.98;;;2.20;99.90;;;;;;5018301;28;20026;-84
2022/01/26 13:30:10;;;;;;;21.48;10.15;;;3.20;99.90;;;;;;5023742;28;20049;-86
2022/01/26 13:32:59;;;;;;;26.48;11.25;;;3.20;99.90;;;;;;5020699;28;20040;-86
2022/01/26 13:46:43;;;;;;;22.10;10.02;;;3.30;99.90;;;;;;5011337;28;20046;-82
2022/01/26 13:51:58;;;;;;;31.80;15.38;;;2.20;99.90;;;;;;5011286;28;20042;-82
2022/01/26 13:54:58;;;;;;;23.65;10.15;;;2.20;99.90;;;;;;5000417;28;20141;-81
2022/01/26 14:00:11;;;;;;;25.17;11.48;;;2.00;99.90;;;;;;5007444;28;20490;-82
2022/01/26 14:02:38;;;;;;;26.45;11.52;;;2.00;99.90;;;;;;5015541;28;20026;-82
2022/01/26 14:05:05;;;;;;;30.08;13.43;;;2.00;99.90;;;;;;5015183;28;20033;-82
2022/01/26 14:07:30;;;;;;;28.70;11.90;;;2.00;99.90;;;;;;5014527;28;20120;-82
2022/01/26 14:09:56;;;;;;;31.13;13.63;;;1.90;99.90;;;;;;5006444;28;20448;-83
2022/01/26 14:12:27;;;;;;;25.88;12.07;;;2.00;99.90;;;;;;5012853;28;20037;-84
2022/01/26 14:14:56;;;;;;;28.27;12.93;;;2.40;99.90;;;;;;5012072;28;20056;-82
2022/01/26 14:17:55;;;;;;;29.70;13.77;;;3.60;99.90;;;;;;5026497;28;20021;-84
2022/01/26 14:25:33;;;;;;;28.58;13.13;;;2.90;99.90;;;;;;5012071;28;20026;-83
2022/01/26 14:28:07;;;;;;;31.80;14.75;;;2.00;99.90;;;;;;5011507;28;20431;-80
2022/01/26 14:30:52;;;;;;;28.80;13.15;;;2.10;99.90;;;;;;5016199;28;20544;-83
2022/01/26 14:55:15;;;;;;;33.13;14.02;;;1.90;99.90;;;;;;5017676;28;20126;-81
2022/01/26 15:08:49;;;;;;;30.25;12.82;;;2.00;99.90;;;;;;5016524;28;20052;-81
2022/01/26 15:30:25;;;;;;;32.88;14.13;;;2.00;99.90;;;;;;5028075;23;20144;-81
2022/01/26 15:40:00;;;;;;;33.13;13.65;;;1.90;99.90;;;;;;5017188;28;20114;-82
2022/01/26 16:05:02;;;;;;;33.85;14.68;;;1.90;99.90;;;;;;5021766;28;20425;-82
2022/01/26 16:07:23;;;;;;;31.58;13.52;;;1.90;99.90;;;;;;5035113;28;20025;-81
2022/01/26 16:21:26;;;;;;;36.65;13.70;;;1.90;99.90;;;;;;5033911;28;20546;-83
2022/01/26 18:49:34;;;;;;;29.52;12.77;;;1.90;99.90;;;;;;5026274;28;20144;-82
2022/01/26 18:52:01;;;;;;;52.53;24.77;;;1.80;99.90;;;;;;5028763;28;20041;-82
2022/01/26 18:54:33;;;;;;;38.28;17.58;;;2.20;99.90;;;;;;5031076;28;20061;-82
2022/01/26 18:57:01;;;;;;;26.70;12.27;;;1.80;99.90;;;;;;5031406;28;20022;-83
2022/01/26 18:59:28;;;;;;;32.90;12.40;;;2.10;99.90;;;;;;5029886;28;20080;-84
2022/01/26 19:01:55;;;;;;;32.08;13.77;;;1.70;99.90;;;;;;5030091;28;20430;-83
2022/01/26 19:04:41;;;;;;;29.85;12.18;;;1.60;99.90;;;;;;5031859;28;20493;-83
2022/01/26 19:07:07;;;;;;;30.85;12.25;;;1.90;99.90;;;;;;5029971;28;20051;-81
2022/01/26 19:09:38;;;;;;;30.67;12.52;;;1.70;99.90;;;;;;5031899;28;20540;-83
2022/01/26 19:12:09;;;;;;;30.15;12.93;;;1.70;99.90;;;;;;5032502;28;20025;-83
2022/01/26 19:14:38;;;;;;;29.27;12.60;;;1.60;99.90;;;;;;5034967;28;20057;-82
2022/01/26 19:17:19;;;;;;;30.00;12.52;;;1.60;99.90;;;;;;5035089;28;20033;-81
2022/01/26 19:31:17;;;;;;;29.75;12.13;;;1.80;99.90;;;;;;4998150;28;20038;-84
2022/01/26 19:44:07;;;;;;;28.35;11.63;;;1.70;99.90;;;;;;5037353;28;20042;-82
2022/01/26 19:52:07;;;;;;;25.63;10.73;;;2.40;99.90;;;;;;5042267;28;19920;-80
2022/01/26 19:54:34;;;;;;;26.48;10.93;;;1.70;99.90;;;;;;5041848;28;20541;-84
2022/01/26 19:57:01;;;;;;;25.88;10.75;;;1.60;99.90;;;;;;5031563;28;20021;-82
2022/01/26 19:59:27;;;;;;;24.40;10.73;;;1.60;99.90;;;;;;5039730;28;20033;-84
2022/01/26 20:01:52;;;;;;;24.92;11.02;;;1.60;99.90;;;;;;5040086;28;20516;-83
2022/01/26 20:04:18;;;;;;;31.73;11.40;;;3.50;99.90;;;;;;5032700;28;20022;-82
2022/01/26 20:06:44;;;;;;;27.23;12.05;;;1.30;99.90;;;;;;5037251;28;20026;-83